Time;durP1;ratioP1;P1;durP2;ratioP2;P2;SDS_P1;SDS_P2;PMS_P1;PMS_P2;Temp;Humidity;BMP_temperature;BMP_pressure;BME280_temperature;BME280_humidity;BME280_pressure;Samples;Min_cycle;Max_cycle;Signal;HPM_P1;HPM_P2
2021/06/01 00:02:18;;;;;;;58.50;3.27;;;10.70;1.00;;;;;;4996069;28;20863;-67
2021/06/01 00:04:46;;;;;;;57.67;2.60;;;10.60;1.00;;;;;;4996228;28;20538;-67
2021/06/01 00:07:12;;;;;;;57.87;2.60;;;10.50;1.00;;;;;;4995801;28;21049;-67
2021/06/01 00:09:39;;;;;;;57.87;2.60;;;10.40;1.00;;;;;;4995975;28;20452;-68
2021/06/01 00:12:06;;;;;;;57.80;2.57;;;10.30;1.00;;;;;;4996027;28;20446;-67
2021/06/01 00:14:32;;;;;;;57.83;2.40;;;10.20;1.00;;;;;;4996128;28;20564;-67
2021/06/01 00:16:59;;;;;;;57.90;2.43;;;9.50;1.00;;;;;;4995696;28;20454;-67
2021/06/01 00:19:25;;;;;;;58.00;2.53;;;10.10;1.00;;;;;;4995906;28;20447;-67
2021/06/01 00:21:53;;;;;;;57.97;2.60;;;10.00;1.00;;;;;;4995858;28;20485;-67
2021/06/01 00:24:19;;;;;;;58.20;2.60;;;10.00;1.00;;;;;;4995653;28;20895;-67
2021/06/01 02:58:57;;;;;;;57.88;2.53;;;8.10;1.00;;;;;;4992766;28;20735;-67
2021/06/01 03:01:25;;;;;;;57.90;2.57;;;8.10;1.00;;;;;;4992970;28;20208;-67
2021/06/01 03:03:53;;;;;;;57.83;2.57;;;8.10;1.00;;;;;;4992981;28;20458;-67
2021/06/01 03:06:20;;;;;;;58.07;2.60;;;8.30;1.00;;;;;;4992701;28;20534;-68
2021/06/01 03:08:46;;;;;;;58.00;2.40;;;8.20;1.00;;;;;;4992899;28;20506;-67
2021/06/01 03:11:17;;;;;;;57.77;2.60;;;8.20;1.00;;;;;;4992883;28;20320;-68
2021/06/01 03:13:43;;;;;;;57.80;2.50;;;7.90;1.00;;;;;;4992944;28;20460;-67
2021/06/01 03:16:12;;;;;;;57.83;2.37;;;7.90;1.00;;;;;;4992836;28;20220;-67
2021/06/01 03:18:39;;;;;;;57.90;2.43;;;7.80;1.00;;;;;;4992602;28;20476;-67
2021/06/01 03:21:06;;;;;;;57.88;2.40;;;7.80;1.00;;;;;;4992772;28;20487;-68
2021/06/01 03:23:32;;;;;;;58.05;2.67;;;7.80;1.00;;;;;;4992596;28;20301;-67
2021/06/01 03:25:59;;;;;;;58.15;2.67;;;7.80;1.00;;;;;;4992897;28;20305;-67
2021/06/01 03:28:26;;;;;;;57.97;2.90;;;7.80;1.00;;;;;;4992390;28;20316;-67
2021/06/01 03:30:53;;;;;;;58.10;2.70;;;8.30;1.00;;;;;;4992529;28;20227;-67
2021/06/01 03:33:20;;;;;;;57.83;2.60;;;7.90;1.00;;;;;;4991692;28;20597;-67
2021/06/01 03:35:47;;;;;;;58.10;2.90;;;7.90;1.00;;;;;;4992396;28;20520;-67
2021/06/01 03:38:13;;;;;;;57.93;3.00;;;7.90;1.00;;;;;;4992044;28;21042;-66
2021/06/01 03:40:41;;;;;;;58.08;2.78;;;7.90;1.00;;;;;;4992625;28;20472;-67
2021/06/01 03:43:07;;;;;;;58.17;2.93;;;7.90;1.00;;;;;;4992641;28;20232;-67
2021/06/01 03:45:35;;;;;;;58.20;2.72;;;8.40;1.00;;;;;;4992500;28;20476;-67
2021/06/01 03:48:02;;;;;;;58.17;2.90;;;8.30;1.00;;;;;;4992131;28;20231;-66
2021/06/01 03:50:30;;;;;;;57.87;2.77;;;7.90;1.00;;;;;;4992210;28;20461;-67
2021/06/01 03:52:57;;;;;;;57.87;2.73;;;7.90;1.00;;;;;;4992231;28;21000;-67
2021/06/01 03:55:23;;;;;;;57.93;2.80;;;7.90;1.00;;;;;;4992424;28;20933;-67
2021/06/01 03:57:50;;;;;;;58.17;2.80;;;7.80;1.00;;;;;;4992110;28;20626;-67
2021/06/01 04:00:19;;;;;;;58.00;2.70;;;7.90;1.00;;;;;;4992175;28;20275;-67
2021/06/01 04:02:45;;;;;;;57.77;2.57;;;7.80;1.00;;;;;;4992309;28;20463;-67
2021/06/01 04:05:12;;;;;;;57.97;2.90;;;7.80;1.00;;;;;;4992147;28;20503;-67
2021/06/01 04:07:40;;;;;;;57.80;2.57;;;7.80;1.00;;;;;;4992129;28;20832;-67
2021/06/01 04:10:07;;;;;;;57.67;2.50;;;7.80;1.00;;;;;;4992452;28;20818;-67
2021/06/01 04:12:33;;;;;;;57.97;2.70;;;7.80;1.00;;;;;;4992277;28;20491;-67
2021/06/01 04:15:00;;;;;;;57.85;2.75;;;8.10;1.00;;;;;;4992328;28;20209;-67
2021/06/01 04:17:26;;;;;;;58.05;2.70;;;7.80;1.00;;;;;;4991983;28;20229;-67
2021/06/01 04:19:53;;;;;;;57.97;2.70;;;7.80;1.00;;;;;;4992151;28;20240;-68
2021/06/01 04:22:19;;;;;;;58.00;2.60;;;7.80;1.00;;;;;;4992244;28;20521;-67
2021/06/01 04:24:47;;;;;;;58.05;2.47;;;8.30;1.00;;;;;;4992062;28;20294;-68
2021/06/01 04:27:13;;;;;;;59.87;3.40;;;7.90;1.00;;;;;;4991837;28;20717;-67
2021/06/01 04:29:40;;;;;;;57.95;2.60;;;8.00;1.00;;;;;;4992171;28;20454;-67
2021/06/01 04:32:07;;;;;;;57.85;2.47;;;8.00;1.00;;;;;;4991870;28;20638;-67
2021/06/01 04:34:33;;;;;;;58.00;2.50;;;8.10;1.00;;;;;;4991965;28;20210;-67
2021/06/01 04:36:59;;;;;;;58.00;2.60;;;8.60;1.00;;;;;;4991982;28;20583;-67
2021/06/01 04:39:26;;;;;;;57.70;2.60;;;8.10;1.00;;;;;;4991790;28;20675;-68
2021/06/01 04:41:54;;;;;;;57.97;2.70;;;8.00;1.00;;;;;;4991968;28;20683;-66
2021/06/01 04:44:20;;;;;;;57.67;2.67;;;8.00;1.00;;;;;;4993783;28;20237;-68
2021/06/01 04:46:46;;;;;;;57.67;2.70;;;8.10;1.00;;;;;;4994984;28;20548;-66
2021/06/01 04:49:13;;;;;;;57.83;2.70;;;8.10;1.00;;;;;;4995387;28;20491;-66
2021/06/01 04:51:39;;;;;;;57.77;2.67;;;8.70;1.00;;;;;;4995473;28;20930;-68
2021/06/01 04:54:05;;;;;;;58.10;2.60;;;8.20;1.00;;;;;;4995215;28;20457;-68
2021/06/01 04:56:32;;;;;;;57.90;2.58;;;8.20;1.00;;;;;;4995086;28;20487;-68
2021/06/01 04:58:59;;;;;;;58.10;2.60;;;8.30;1.00;;;;;;4995115;28;20318;-68
2021/06/01 05:01:26;;;;;;;58.10;2.53;;;8.30;1.00;;;;;;4995364;28;20212;-66
2021/06/01 05:03:53;;;;;;;57.97;2.38;;;8.90;1.00;;;;;;4995230;28;20213;-68
2021/06/01 05:06:20;;;;;;;57.77;2.57;;;8.40;1.00;;;;;;4994780;28;20696;-68
2021/06/01 05:08:47;;;;;;;57.50;2.57;;;8.50;1.00;;;;;;4994913;28;20565;-68
2021/06/01 05:11:15;;;;;;;57.83;2.40;;;8.50;1.00;;;;;;4994934;28;20943;-68
2021/06/01 05:13:41;;;;;;;57.90;2.87;;;8.60;1.00;;;;;;4994822;28;20454;-68
2021/06/01 05:16:09;;;;;;;57.80;2.57;;;8.70;1.00;;;;;;4994582;28;20533;-67
2021/06/01 05:18:35;;;;;;;57.67;2.50;;;8.70;1.00;;;;;;4994976;28;21091;-68
2021/06/01 05:21:01;;;;;;;57.63;2.50;;;8.80;1.00;;;;;;4994898;28;20475;-68
2021/06/01 05:23:28;;;;;;;57.70;2.50;;;8.80;1.00;;;;;;4994738;28;20491;-68
2021/06/01 05:25:55;;;;;;;57.77;2.40;;;8.90;1.00;;;;;;4994836;28;20453;-68
2021/06/01 05:28:22;;;;;;;57.53;2.60;;;8.90;1.00;;;;;;4994179;28;20484;-68
2021/06/01 05:30:56;;;;;;;58.00;2.60;;;9.00;1.00;;;;;;4994732;28;20483;-68
2021/06/01 05:33:26;;;;;;;57.57;2.40;;;9.00;1.00;;;;;;4994536;28;20457;-69
2021/06/01 05:35:53;;;;;;;57.67;2.50;;;9.10;1.00;;;;;;4994465;28;20547;-68
2021/06/01 05:38:20;;;;;;;57.90;2.43;;;9.20;1.00;;;;;;4994185;28;20832;-68
2021/06/01 05:40:47;;;;;;;57.53;2.37;;;9.20;1.00;;;;;;4994892;28;20459;-68
2021/06/01 05:43:13;;;;;;;58.20;2.60;;;9.30;1.00;;;;;;4994613;28;20453;-68
2021/06/01 05:45:40;;;;;;;57.60;2.23;;;9.40;1.00;;;;;;4994596;28;20807;-67
2021/06/01 05:48:08;;;;;;;57.43;2.10;;;9.40;1.00;;;;;;4994166;28;20472;-67
2021/06/01 05:50:36;;;;;;;57.50;2.30;;;9.50;1.00;;;;;;4994277;28;20453;-67
2021/06/01 05:53:04;;;;;;;57.67;2.40;;;9.60;1.00;;;;;;4994238;28;20580;-68
2021/06/01 05:55:30;;;;;;;57.63;2.47;;;9.70;1.00;;;;;;4993160;28;20488;-68
2021/06/01 05:57:57;;;;;;;57.47;2.30;;;9.80;1.00;;;;;;4993697;28;20502;-68
2021/06/01 06:00:24;;;;;;;57.60;2.40;;;9.80;1.00;;;;;;4993938;28;20967;-68
2021/06/01 06:02:51;;;;;;;57.67;2.50;;;9.90;1.00;;;;;;4994077;28;20534;-68
2021/06/01 06:05:17;;;;;;;57.73;2.47;;;10.00;1.00;;;;;;4994048;28;20497;-68
2021/06/01 06:07:45;;;;;;;57.53;2.40;;;10.10;1.00;;;;;;4993656;28;20564;-68
2021/06/01 06:10:12;;;;;;;57.63;2.60;;;10.20;1.00;;;;;;4993698;28;20549;-68
2021/06/01 06:12:39;;;;;;;57.67;2.50;;;10.30;1.00;;;;;;4993966;28;20493;-68
2021/06/01 06:15:09;;;;;;;57.83;2.60;;;10.40;1.00;;;;;;4993969;28;20895;-68
2021/06/01 06:17:44;;;;;;;57.73;2.60;;;10.50;1.00;;;;;;4993495;28;20553;-68
2021/06/01 06:20:12;;;;;;;57.57;2.40;;;10.70;1.00;;;;;;4993660;28;21021;-68
2021/06/01 06:22:38;;;;;;;57.73;2.37;;;10.80;1.00;;;;;;4993997;28;20474;-67
2021/06/01 06:25:09;;;;;;;57.37;2.37;;;10.90;1.00;;;;;;4993866;28;20716;-68
2021/06/01 06:27:35;;;;;;;57.90;2.37;;;11.00;1.00;;;;;;4993458;28;20524;-67
2021/06/01 06:30:02;;;;;;;57.80;2.40;;;11.10;1.00;;;;;;4993610;28;20888;-68
2021/06/01 06:32:29;;;;;;;57.57;2.33;;;11.30;1.00;;;;;;4993341;28;20577;-68
2021/06/01 06:34:55;;;;;;;57.83;2.40;;;11.50;1.00;;;;;;4993470;28;20453;-68
2021/06/01 06:37:21;;;;;;;57.77;2.50;;;11.70;1.00;;;;;;4993208;28;20467;-68
2021/06/01 06:39:48;;;;;;;57.93;2.40;;;12.00;1.00;;;;;;4993452;28;20845;-68
2021/06/01 06:42:17;;;;;;;57.90;2.43;;;12.20;1.00;;;;;;4993365;28;20829;-68
2021/06/01 06:44:47;;;;;;;57.93;2.40;;;12.50;1.00;;;;;;4993190;28;20490;-68
2021/06/01 06:47:28;;;;;;;57.57;2.50;;;12.60;1.00;;;;;;4993002;28;20501;-68
2021/06/01 06:49:55;;;;;;;57.57;2.30;;;12.80;1.00;;;;;;4993167;28;20473;-68
2021/06/01 06:52:22;;;;;;;57.67;2.43;;;13.00;1.00;;;;;;4993175;28;20578;-68
2021/06/01 06:54:49;;;;;;;57.67;2.53;;;13.20;1.00;;;;;;4993269;28;20884;-68
2021/06/01 06:57:16;;;;;;;57.63;2.37;;;13.40;1.00;;;;;;4993048;28;20502;-67
2021/06/01 06:59:43;;;;;;;57.57;2.40;;;13.60;1.00;;;;;;4992933;28;20460;-68
2021/06/01 07:02:10;;;;;;;57.87;2.30;;;13.80;1.00;;;;;;4992832;28;20486;-68
2021/06/01 07:04:36;;;;;;;57.67;2.40;;;14.10;1.00;;;;;;4993037;28;20508;-67
2021/06/01 07:07:03;;;;;;;57.47;2.50;;;14.40;1.00;;;;;;4992473;28;21029;-68
2021/06/01 07:09:29;;;;;;;57.57;2.40;;;14.50;1.00;;;;;;4992947;28;20493;-68
2021/06/01 07:11:56;;;;;;;57.77;2.67;;;14.80;1.00;;;;;;4992722;28;21070;-68
2021/06/01 07:14:40;;;;;;;57.43;2.33;;;15.00;1.00;;;;;;4992810;28;20929;-68
2021/06/01 07:17:07;;;;;;;57.60;2.60;;;15.40;1.00;;;;;;4992688;28;20474;-67
2021/06/01 07:19:33;;;;;;;57.67;2.60;;;15.20;1.00;;;;;;4992834;28;20454;-68
2021/06/01 07:22:00;;;;;;;57.77;2.63;;;15.90;1.00;;;;;;4992735;28;20451;-68
2021/06/01 07:24:26;;;;;;;58.20;3.07;;;15.60;1.00;;;;;;4992867;28;20461;-68
2021/06/01 07:26:52;;;;;;;57.53;2.50;;;15.70;1.00;;;;;;4992905;28;20454;-68
2021/06/01 07:29:19;;;;;;;57.27;2.50;;;15.80;1.00;;;;;;4992402;28;20486;-66
2021/06/01 07:31:49;;;;;;;57.73;2.50;;;16.00;1.00;;;;;;4992499;28;20491;-69
2021/06/01 07:34:16;;;;;;;57.90;2.57;;;16.20;1.00;;;;;;4992691;28;20543;-68
2021/06/01 07:36:43;;;;;;;57.67;2.40;;;16.20;1.00;;;;;;4992302;28;20538;-68
2021/06/01 07:39:09;;;;;;;57.77;2.50;;;16.40;1.00;;;;;;4992587;28;20454;-66
2021/06/01 07:41:35;;;;;;;57.67;2.43;;;16.60;1.00;;;;;;4992589;28;20826;-66
2021/06/01 07:44:03;;;;;;;57.73;2.60;;;16.70;1.00;;;;;;4992368;28;20538;-66
2021/06/01 07:46:30;;;;;;;57.43;2.40;;;16.90;1.00;;;;;;4992397;28;20456;-67
2021/06/01 07:48:58;;;;;;;57.27;2.30;;;16.90;1.00;;;;;;4992165;28;21038;-67
2021/06/01 07:51:28;;;;;;;57.50;2.50;;;17.20;1.00;;;;;;4992390;28;20904;-67
2021/06/01 07:53:56;;;;;;;57.63;2.37;;;17.50;1.00;;;;;;4992252;28;20973;-67
2021/06/01 07:56:22;;;;;;;57.53;2.30;;;17.50;1.00;;;;;;4992251;28;20469;-67
2021/06/01 07:58:49;;;;;;;57.57;2.40;;;17.60;1.00;;;;;;4992036;28;20512;-66
2021/06/01 08:01:15;;;;;;;57.63;2.40;;;17.70;1.00;;;;;;4992540;28;20457;-68
2021/06/01 08:03:42;;;;;;;57.10;2.30;;;17.90;1.00;;;;;;4992340;28;20537;-67
2021/06/01 08:06:10;;;;;;;57.57;2.30;;;18.00;1.00;;;;;;4992222;28;20540;-67
2021/06/01 08:08:36;;;;;;;57.60;2.30;;;18.10;1.00;;;;;;4992128;28;20477;-67
2021/06/01 08:11:03;;;;;;;57.10;2.17;;;18.20;1.00;;;;;;4992047;28;20549;-67
2021/06/01 08:13:29;;;;;;;57.47;2.10;;;18.40;1.00;;;;;;4992034;28;20583;-67
2021/06/01 08:15:56;;;;;;;57.70;2.10;;;18.40;1.00;;;;;;4992431;28;20536;-68
2021/06/01 08:18:25;;;;;;;57.17;2.10;;;18.60;1.00;;;;;;4992397;28;20882;-67
2021/06/01 08:20:59;;;;;;;57.20;2.27;;;18.80;1.00;;;;;;4995826;28;20453;-68
2021/06/01 08:23:27;;;;;;;57.77;2.50;;;18.80;1.00;;;;;;4995767;28;20449;-67
2021/06/01 08:25:53;;;;;;;57.77;2.63;;;19.00;1.00;;;;;;4996008;28;20488;-68
2021/06/01 08:28:19;;;;;;;57.40;2.37;;;19.10;1.00;;;;;;4995925;28;20496;-67
2021/06/01 08:30:46;;;;;;;57.07;2.27;;;18.80;1.00;;;;;;4995977;28;20457;-67
2021/06/01 08:33:12;;;;;;;57.37;2.23;;;19.30;1.00;;;;;;4995709;28;20577;-67
2021/06/01 08:35:38;;;;;;;57.57;2.20;;;19.40;1.00;;;;;;4995677;28;20465;-67
2021/06/01 08:38:05;;;;;;;57.60;2.20;;;19.60;1.00;;;;;;4995383;28;20592;-67
2021/06/01 08:40:33;;;;;;;56.60;2.23;;;19.70;1.00;;;;;;4995499;28;20454;-67
2021/06/01 08:42:59;;;;;;;56.87;2.20;;;19.90;1.00;;;;;;4995478;28;20454;-67
2021/06/01 08:45:26;;;;;;;57.57;2.20;;;20.10;1.00;;;;;;4995578;28;20478;-67
2021/06/01 08:47:56;;;;;;;57.17;2.20;;;20.10;1.00;;;;;;4995247;28;20472;-67
2021/06/01 08:50:22;;;;;;;57.17;2.20;;;20.30;1.00;;;;;;4995239;28;20951;-67
2021/06/01 08:52:49;;;;;;;57.17;2.10;;;20.30;1.00;;;;;;4995337;28;20649;-67
2021/06/01 08:55:15;;;;;;;57.53;2.27;;;20.40;1.00;;;;;;4995505;28;20455;-67
2021/06/01 08:57:43;;;;;;;57.60;2.20;;;20.60;1.00;;;;;;4994958;28;20553;-67
2021/06/01 09:00:12;;;;;;;57.47;2.20;;;20.70;1.00;;;;;;4995049;28;20983;-68
2021/06/01 09:02:40;;;;;;;57.27;2.20;;;20.80;1.00;;;;;;4995080;28;20971;-67
2021/06/01 09:05:09;;;;;;;57.30;2.37;;;20.90;1.00;;;;;;4995071;28;20656;-67
2021/06/01 09:07:48;;;;;;;57.47;2.60;;;21.10;1.00;;;;;;4995067;28;20561;-67
2021/06/01 09:10:28;;;;;;;57.47;2.30;;;21.00;1.00;;;;;;4995087;28;21054;-67
2021/06/01 09:19:51;;;;;;;57.50;2.30;;;21.30;1.00;;;;;;4993258;28;20447;-67
2021/06/01 09:21:30;;;;;;;57.33;2.13;;;21.40;1.00;;;;;;4994894;28;20437;-67
2021/06/01 09:23:59;;;;;;;57.40;2.10;;;21.50;1.00;;;;;;4994670;28;20482;-66
2021/06/01 09:26:59;;;;;;;57.63;2.60;;;21.70;1.00;;;;;;4994765;28;20452;-67
2021/06/01 09:29:29;;;;;;;57.07;2.30;;;21.80;1.00;;;;;;4994606;28;20457;-67
2021/06/01 09:32:10;;;;;;;57.57;2.30;;;21.90;1.00;;;;;;4994506;28;20562;-67
2021/06/01 09:34:38;;;;;;;57.60;2.50;;;22.20;1.00;;;;;;4994859;28;20874;-67
2021/06/01 09:37:32;;;;;;;57.37;2.20;;;22.20;1.00;;;;;;4994453;28;20505;-67
2021/06/01 09:40:09;;;;;;;57.77;2.13;;;22.30;1.00;;;;;;4970931;28;20459;-67
2021/06/01 09:42:37;;;;;;;57.67;2.20;;;22.40;1.00;;;;;;4994410;28;20928;-68
2021/06/01 09:45:12;;;;;;;57.53;2.20;;;22.60;1.00;;;;;;4994660;28;20874;-67
2021/06/01 09:47:52;;;;;;;57.13;2.20;;;22.70;1.00;;;;;;4994112;28;20470;-68
2021/06/01 09:50:33;;;;;;;57.43;2.17;;;22.90;1.00;;;;;;4994331;28;20974;-67
2021/06/01 09:53:04;;;;;;;57.37;2.13;;;23.00;1.00;;;;;;4994219;28;20578;-67
2021/06/01 09:55:35;;;;;;;57.37;2.20;;;23.40;1.00;;;;;;4994448;28;20454;-67
2021/06/01 09:58:04;;;;;;;57.70;2.20;;;23.20;1.00;;;;;;4993992;28;20477;-68
2021/06/01 10:00:33;;;;;;;57.60;2.57;;;23.40;1.00;;;;;;4993923;28;20467;-68
2021/06/01 10:03:02;;;;;;;57.23;2.20;;;23.50;1.00;;;;;;4994196;28;20883;-68
2021/06/01 10:05:30;;;;;;;57.27;2.10;;;23.70;1.00;;;;;;4993836;28;20455;-68
2021/06/01 10:07:59;;;;;;;57.33;2.13;;;23.80;1.00;;;;;;4993790;28;20564;-68
2021/06/01 10:10:27;;;;;;;57.37;2.20;;;24.00;1.00;;;;;;4993717;28;20530;-68
2021/06/01 10:12:55;;;;;;;57.33;2.00;;;24.10;1.00;;;;;;4993866;28;20923;-67
2021/06/01 10:15:24;;;;;;;57.60;2.83;;;24.30;1.00;;;;;;4993774;28;20537;-67
2021/06/01 10:17:52;;;;;;;57.50;2.00;;;24.40;1.00;;;;;;4993286;28;20479;-68
2021/06/01 10:20:21;;;;;;;57.33;2.17;;;24.80;1.00;;;;;;4993663;28;20483;-68
2021/06/01 10:22:48;;;;;;;57.23;2.00;;;26.00;1.00;;;;;;4993523;28;20956;-68
2021/06/01 10:25:16;;;;;;;57.17;2.00;;;27.20;1.00;;;;;;4993744;28;20461;-67
2021/06/01 10:27:43;;;;;;;57.27;2.07;;;28.10;1.00;;;;;;4993302;28;20563;-68
2021/06/01 10:30:11;;;;;;;57.23;1.93;;;28.80;1.00;;;;;;4993323;28;20541;-68
2021/06/01 10:32:41;;;;;;;57.30;2.00;;;29.60;1.00;;;;;;4993185;28;20486;-67
2021/06/01 10:35:13;;;;;;;56.97;1.90;;;30.40;1.00;;;;;;4993608;28;20811;-67
2021/06/01 10:43:39;;;;;;;57.07;1.90;;;31.20;1.00;;;;;;4992895;28;20424;-68
2021/06/01 10:52:10;;;;;;;56.93;2.10;;;32.50;1.00;;;;;;4988253;28;20559;-67
2021/06/01 10:54:53;;;;;;;56.63;1.70;;;32.70;1.00;;;;;;4993306;28;20532;-67
2021/06/01 10:57:20;;;;;;;56.57;1.70;;;32.80;1.00;;;;;;4992783;28;20553;-68
2021/06/01 11:01:49;;;;;;;56.87;1.90;;;32.80;1.00;;;;;;4992645;28;20462;-67
2021/06/01 11:03:04;;;;;;;56.77;1.80;;;32.90;1.00;;;;;;4992789;28;20455;-68
2021/06/01 11:05:30;;;;;;;56.77;1.90;;;33.50;1.00;;;;;;4992904;28;21000;-67
2021/06/01 11:08:00;;;;;;;56.80;1.80;;;34.00;1.00;;;;;;4992499;28;21053;-68
2021/06/01 11:10:39;;;;;;;56.73;1.87;;;34.20;1.00;;;;;;4992776;28;20481;-67
2021/06/01 11:13:07;;;;;;;56.67;1.80;;;34.20;1.00;;;;;;4992942;28;20492;-68
2021/06/01 11:15:36;;;;;;;56.80;1.83;;;34.40;1.00;;;;;;4992859;28;20550;-68
2021/06/01 11:18:23;;;;;;;56.70;1.70;;;34.70;1.00;;;;;;4992581;28;20463;-68
2021/06/01 11:21:16;;;;;;;56.73;1.70;;;35.30;1.00;;;;;;4992925;28;20454;-67
2021/06/01 11:32:57;;;;;;;56.80;1.90;;;35.80;1.00;;;;;;4980772;28;20432;-68
2021/06/01 11:35:26;;;;;;;56.67;1.70;;;35.80;1.00;;;;;;4992838;28;20439;-67
2021/06/01 11:38:01;;;;;;;56.57;1.70;;;36.10;1.00;;;;;;4992279;28;20478;-67
2021/06/01 11:40:36;;;;;;;56.60;1.60;;;36.40;1.00;;;;;;4992460;28;20462;-68
2021/06/01 11:43:04;;;;;;;56.50;1.80;;;36.60;1.00;;;;;;4992398;28;20994;-68
2021/06/01 11:45:42;;;;;;;56.37;1.67;;;35.90;1.00;;;;;;4992228;28;20541;-67
2021/06/01 11:48:14;;;;;;;56.70;1.60;;;35.30;1.00;;;;;;4992174;28;20991;-68
2021/06/01 11:50:59;;;;;;;56.60;1.60;;;35.20;1.00;;;;;;4992528;28;20455;-67
2021/06/01 11:53:25;;;;;;;56.60;1.60;;;34.70;1.00;;;;;;4993063;28;20454;-68
2021/06/01 11:56:01;;;;;;;56.80;1.80;;;34.80;1.00;;;;;;4996205;28;20542;-68
2021/06/01 12:04:03;;;;;;;56.50;1.60;;;36.00;1.00;;;;;;4994889;28;20585;-65
2021/06/01 12:12:05;;;;;;;56.47;1.60;;;36.20;1.00;;;;;;4994832;28;20945;-68
2021/06/01 12:17:48;;;;;;;56.33;1.50;;;35.90;1.00;;;;;;4994910;28;20508;-68
2021/06/01 12:20:15;;;;;;;56.60;1.67;;;35.90;1.00;;;;;;4994637;28;20538;-68
2021/06/01 12:22:41;;;;;;;56.87;2.10;;;36.10;1.00;;;;;;4994488;28;20486;-69
2021/06/01 12:25:11;;;;;;;56.60;1.60;;;36.30;1.00;;;;;;4994507;28;20538;-68
2021/06/01 12:27:55;;;;;;;56.43;1.60;;;36.40;1.00;;;;;;4994271;28;21045;-68
2021/06/01 12:33:08;;;;;;;56.37;1.60;;;37.30;1.00;;;;;;4994543;28;20430;-68
2021/06/01 12:35:50;;;;;;;56.47;1.80;;;37.50;1.00;;;;;;4994680;28;20542;-66
2021/06/01 12:43:47;;;;;;;56.70;1.87;;;37.80;1.00;;;;;;4994400;28;20497;-67
2021/06/01 12:46:30;;;;;;;56.60;1.53;;;37.60;1.00;;;;;;4994180;28;20554;-68
2021/06/01 13:08:53;;;;;;;56.43;1.60;;;36.80;1.00;;;;;;4983215;28;20455;-67
2021/06/01 13:19:41;;;;;;;57.00;1.70;;;35.00;1.00;;;;;;4994911;28;20954;-67
2021/06/01 13:22:34;;;;;;;56.67;1.60;;;34.80;1.00;;;;;;4994991;28;20482;-68
2021/06/01 13:30:57;;;;;;;56.77;1.80;;;34.40;1.00;;;;;;4994637;28;20427;-68
2021/06/01 13:36:32;;;;;;;56.67;1.80;;;33.90;1.00;;;;;;4994463;28;20696;-68
2021/06/01 13:39:01;;;;;;;56.77;1.80;;;33.50;1.00;;;;;;4994283;28;20585;-68
2021/06/01 13:47:09;;;;;;;56.63;1.80;;;34.10;1.00;;;;;;4994321;28;20457;-67
2021/06/01 13:49:40;;;;;;;56.70;1.60;;;33.90;1.00;;;;;;4994232;28;20443;-67
2021/06/01 13:52:16;;;;;;;56.90;1.70;;;34.10;1.00;;;;;;4994437;28;20489;-67
2021/06/01 13:57:34;;;;;;;56.67;1.80;;;33.20;1.00;;;;;;4994060;28;20779;-67
2021/06/01 14:00:16;;;;;;;56.67;1.80;;;33.10;1.00;;;;;;4994032;28;20839;-67
2021/06/01 14:30:52;;;;;;;56.60;1.60;;;34.70;1.00;;;;;;4993748;28;20420;-66
2021/06/01 14:36:17;;;;;;;56.67;1.90;;;36.20;1.00;;;;;;4993392;28;20455;-67
2021/06/01 14:39:10;;;;;;;56.43;1.70;;;36.60;1.00;;;;;;4993653;28;20479;-66
2021/06/01 15:29:02;;;;;;;56.67;1.60;;;35.50;1.00;;;;;;4992654;28;20490;-67
2021/06/01 15:31:36;;;;;;;56.67;1.70;;;35.00;1.00;;;;;;4992662;28;20959;-67
2021/06/01 15:47:53;;;;;;;56.77;1.70;;;34.00;1.00;;;;;;4992138;28;20454;-67
2021/06/01 15:50:32;;;;;;;57.20;2.50;;;33.60;1.00;;;;;;4992421;28;20951;-66
2021/06/01 15:53:32;;;;;;;56.53;1.90;;;33.30;1.00;;;;;;4992402;28;20466;-67
2021/06/01 16:13:08;;;;;;;56.67;1.80;;;30.90;1.00;;;;;;4992474;28;20538;-66
2021/06/01 16:21:28;;;;;;;57.20;2.37;;;30.40;1.00;;;;;;4992213;28;20570;-66
2021/06/01 16:29:46;;;;;;;57.17;1.80;;;29.00;1.00;;;;;;4992133;28;20458;-66
2021/06/01 16:32:29;;;;;;;57.40;2.17;;;28.40;1.00;;;;;;4992282;28;20462;-67
2021/06/01 16:43:30;;;;;;;59.47;2.83;;;27.80;1.00;;;;;;4995486;28;20479;-67
2021/06/01 17:05:18;;;;;;;57.23;1.90;;;27.30;1.00;;;;;;4995288;28;20459;-67
2021/06/01 17:08:04;;;;;;;57.17;1.90;;;27.10;1.00;;;;;;4995017;28;20472;-67
2021/06/01 17:13:17;;;;;;;57.13;1.90;;;27.00;1.00;;;;;;4995283;28;20436;-67
2021/06/01 17:15:44;;;;;;;57.27;1.77;;;27.00;1.00;;;;;;4995174;28;20499;-66
2021/06/01 17:18:15;;;;;;;58.17;2.17;;;26.90;1.00;;;;;;4994720;28;20502;-67
2021/06/01 17:23:42;;;;;;;57.37;1.90;;;26.80;1.00;;;;;;4994495;28;20477;-67
2021/06/01 17:31:49;;;;;;;57.23;1.70;;;26.50;1.00;;;;;;4995074;28;20951;-67
2021/06/01 17:34:38;;;;;;;57.20;2.00;;;26.50;1.00;;;;;;4994872;28;20460;-67
2021/06/01 17:37:06;;;;;;;57.27;2.00;;;26.60;1.00;;;;;;4994284;28;20515;-67
2021/06/01 17:39:35;;;;;;;57.23;1.90;;;26.60;1.00;;;;;;4994578;28;20456;-67
2021/06/01 17:42:02;;;;;;;57.27;2.00;;;26.60;1.00;;;;;;4994506;28;20536;-66
2021/06/01 17:44:31;;;;;;;57.23;2.10;;;26.50;1.00;;;;;;4994727;28;20487;-67
2021/06/01 17:46:59;;;;;;;57.40;2.20;;;26.50;1.00;;;;;;4994237;28;20924;-68
2021/06/01 17:49:27;;;;;;;57.57;2.43;;;26.30;1.00;;;;;;4994196;28;20459;-67
2021/06/01 17:51:55;;;;;;;57.27;1.90;;;26.20;1.00;;;;;;4993146;28;20517;-67
2021/06/01 17:54:26;;;;;;;57.27;1.90;;;26.10;1.00;;;;;;4994071;28;20474;-67
2021/06/01 17:56:55;;;;;;;57.47;2.00;;;26.10;1.00;;;;;;4993858;28;20967;-67
2021/06/01 17:59:22;;;;;;;57.30;1.90;;;25.90;1.00;;;;;;4994206;28;20880;-67
2021/06/01 18:01:49;;;;;;;57.33;1.80;;;25.90;1.00;;;;;;4994447;28;20534;-67
2021/06/01 18:04:17;;;;;;;57.23;1.83;;;25.90;1.00;;;;;;4993969;28;20518;-68
2021/06/01 18:06:47;;;;;;;57.60;2.53;;;25.90;1.00;;;;;;4993660;28;20448;-67
2021/06/01 18:09:25;;;;;;;57.17;1.87;;;25.90;1.00;;;;;;4994179;28;20458;-67
2021/06/01 18:12:13;;;;;;;57.23;1.87;;;25.90;1.00;;;;;;4994257;28;20450;-67
2021/06/01 18:37:22;;;;;;;57.30;1.73;;;25.10;1.00;;;;;;4993293;28;20862;-68
2021/06/01 18:42:59;;;;;;;57.63;2.20;;;24.60;1.00;;;;;;4993409;28;20504;-67
2021/06/01 18:51:40;;;;;;;57.47;2.07;;;23.80;1.00;;;;;;4971458;28;20842;-67
2021/06/01 19:02:34;;;;;;;57.73;2.17;;;22.40;1.00;;;;;;4992665;28;20433;-67
2021/06/01 19:21:54;;;;;;;57.67;2.17;;;20.70;1.00;;;;;;4992666;28;20432;-67
2021/06/01 19:24:26;;;;;;;58.00;2.27;;;20.50;1.00;;;;;;4992568;28;20484;-67
2021/06/01 19:52:10;;;;;;;57.43;2.30;;;18.30;1.00;;;;;;4992294;28;20438;-67
2021/06/01 19:54:38;;;;;;;57.83;2.40;;;18.10;1.00;;;;;;4992386;28;21055;-68
2021/06/01 19:57:06;;;;;;;58.00;2.37;;;18.00;1.00;;;;;;4992050;28;20566;-67
2021/06/01 19:59:34;;;;;;;58.00;2.40;;;17.80;1.00;;;;;;4992351;28;20575;-67
2021/06/01 20:02:01;;;;;;;57.77;2.40;;;17.70;1.00;;;;;;4992390;28;20453;-67
2021/06/01 20:04:28;;;;;;;58.20;2.40;;;17.60;1.00;;;;;;4992143;28;20575;-67
2021/06/01 20:06:55;;;;;;;58.03;2.47;;;17.50;1.00;;;;;;4992091;28;20456;-67
2021/06/01 20:09:22;;;;;;;57.63;2.40;;;17.40;1.00;;;;;;4992296;28;20536;-67
2021/06/01 20:11:50;;;;;;;57.77;2.40;;;17.30;1.00;;;;;;4992198;28;20483;-68
2021/06/01 20:14:17;;;;;;;57.57;2.30;;;17.20;1.00;;;;;;4992729;28;20876;-67
2021/06/01 20:16:47;;;;;;;57.67;2.20;;;17.10;1.00;;;;;;4995746;28;20489;-67
2021/06/01 20:19:17;;;;;;;57.57;2.23;;;16.90;1.00;;;;;;4995952;28;20447;-68
2021/06/01 20:21:48;;;;;;;57.83;2.40;;;16.80;1.00;;;;;;4996166;28;20451;-67
2021/06/01 20:24:16;;;;;;;57.77;2.50;;;16.70;1.00;;;;;;4995741;28;20493;-67
2021/06/01 20:26:44;;;;;;;58.20;2.40;;;16.60;1.00;;;;;;4995889;28;20810;-68
2021/06/01 20:29:17;;;;;;;58.03;2.40;;;16.50;1.00;;;;;;4995955;28;20462;-67
2021/06/01 20:31:55;;;;;;;57.87;2.30;;;16.30;1.00;;;;;;4995829;28;20456;-67
2021/06/01 20:34:21;;;;;;;57.87;2.30;;;16.20;1.00;;;;;;4995964;28;20458;-67
2021/06/01 20:36:48;;;;;;;58.10;2.50;;;16.10;1.00;;;;;;4995814;28;20456;-68
2021/06/01 20:39:14;;;;;;;58.07;2.40;;;16.00;1.00;;;;;;4995615;28;20922;-68
2021/06/01 20:41:42;;;;;;;58.10;2.50;;;16.00;1.00;;;;;;4995726;28;20606;-67
2021/06/01 20:44:10;;;;;;;57.93;2.50;;;15.90;1.00;;;;;;4995462;28;20486;-68
2021/06/01 20:46:38;;;;;;;57.97;2.50;;;15.80;1.00;;;;;;4995273;28;20490;-67
2021/06/01 20:49:04;;;;;;;57.77;2.40;;;15.80;1.00;;;;;;4995354;28;20471;-68
2021/06/01 20:51:31;;;;;;;57.87;2.33;;;15.70;1.00;;;;;;4995335;28;20837;-67
2021/06/01 20:53:58;;;;;;;57.83;2.57;;;15.70;1.00;;;;;;4995653;28;20869;-67
2021/06/01 20:56:27;;;;;;;57.80;2.67;;;15.60;1.00;;;;;;4995233;28;20458;-67
2021/06/01 20:58:56;;;;;;;58.13;2.50;;;15.50;1.00;;;;;;4995126;28;20561;-67
2021/06/01 21:01:25;;;;;;;57.47;2.40;;;15.40;1.00;;;;;;4995339;28;20478;-67
2021/06/01 21:03:55;;;;;;;57.93;2.60;;;15.40;1.00;;;;;;4994994;28;20518;-67
2021/06/01 21:06:21;;;;;;;57.40;2.50;;;15.30;1.00;;;;;;4995175;28;20458;-67
2021/06/01 21:08:48;;;;;;;57.87;2.50;;;15.20;1.00;;;;;;4995160;28;20479;-67
2021/06/01 21:11:14;;;;;;;57.97;2.60;;;15.10;1.00;;;;;;4995200;28;20490;-67
2021/06/01 21:13:43;;;;;;;57.67;2.70;;;15.00;1.00;;;;;;4995307;28;20525;-67